Time;durP1;ratioP1;P1;durP2;ratioP2;P2;SDS_P1;SDS_P2;PMS_P1;PMS_P2;Temp;Humidity;BMP_temperature;BMP_pressure;BME280_temperature;BME280_humidity;BME280_pressure;Samples;Min_cycle;Max_cycle;Signal;HPM_P1;HPM_P2
2023/03/21 00:01:25;;;;;;;8.07;3.40;;;9.50;99.90;;;8.51;100.00;97589.56;5052991;28;20423;-71
2023/03/21 00:03:50;;;;;;;6.35;3.20;;;9.50;99.90;;;8.49;100.00;97586.34;5053306;28;20471;-71
2023/03/21 00:06:16;;;;;;;6.35;3.47;;;9.50;99.90;;;8.48;100.00;97586.59;5053390;28;20890;-71
2023/03/21 00:08:43;;;;;;;4.03;3.00;;;9.50;99.90;;;8.48;100.00;97583.97;5053480;28;20405;-71
2023/03/21 00:11:11;;;;;;;8.10;3.20;;;9.50;99.90;;;8.41;100.00;97578.81;5052711;28;20428;-71
2023/03/21 00:13:41;;;;;;;6.70;3.20;;;9.40;99.90;;;8.43;100.00;97587.28;5051974;28;20397;-71
2023/03/21 00:16:14;;;;;;;5.65;3.20;;;9.40;99.90;;;8.45;100.00;97585.22;5053202;28;20781;-71
2023/03/21 00:18:41;;;;;;;6.35;3.10;;;9.40;99.90;;;8.43;100.00;97582.00;5053267;28;20421;-71
2023/03/21 00:21:10;;;;;;;5.05;3.20;;;9.40;99.90;;;8.47;100.00;97582.34;5053372;28;20408;-71
2023/03/21 00:23:36;;;;;;;5.15;3.35;;;9.50;99.90;;;8.48;100.00;97578.69;5053045;28;20451;-71
2023/03/21 00:26:02;;;;;;;6.27;3.60;;;9.50;99.90;;;8.48;100.00;97579.50;5052261;28;20504;-71
2023/03/21 00:28:28;;;;;;;4.45;3.42;;;9.50;99.90;;;8.50;100.00;97579.22;5052845;28;20394;-71
2023/03/21 00:30:58;;;;;;;10.55;3.50;;;9.50;99.90;;;8.48;100.00;97568.13;5053038;28;20406;-71
2023/03/21 00:33:27;;;;;;;7.17;3.70;;;9.50;99.90;;;8.47;100.00;97562.06;5053000;28;20481;-71
2023/03/21 00:35:53;;;;;;;8.65;3.42;;;9.50;99.90;;;8.43;100.00;97565.38;5052572;28;20431;-71
2023/03/21 00:38:20;;;;;;;7.15;3.40;;;9.40;99.90;;;8.39;100.00;97564.25;5053053;28;20409;-71
2023/03/21 00:40:46;;;;;;;5.82;3.72;;;9.40;99.90;;;8.40;100.00;97564.03;5052034;28;20496;-71
2023/03/21 00:43:22;;;;;;;6.40;3.80;;;9.40;99.90;;;8.39;100.00;97554.50;5052470;28;20413;-71
2023/03/21 00:45:50;;;;;;;7.72;3.40;;;9.40;99.90;;;8.35;100.00;97550.72;5052830;28;20412;-71
2023/03/21 00:48:16;;;;;;;6.07;3.13;;;9.40;99.90;;;8.32;100.00;97547.75;5052969;28;21045;-71
2023/03/21 00:50:45;;;;;;;6.35;3.22;;;9.30;99.90;;;8.31;100.00;97546.94;5052914;28;20416;-71
2023/03/21 00:53:12;;;;;;;6.35;3.60;;;9.30;99.90;;;8.32;100.00;97550.38;5051978;28;20413;-71
2023/03/21 00:55:38;;;;;;;5.07;3.50;;;9.30;99.90;;;8.31;100.00;97533.75;5052382;28;20411;-71
2023/03/21 00:58:05;;;;;;;4.10;2.88;;;9.30;99.90;;;8.29;100.00;97541.06;5052679;28;20484;-71
2023/03/21 01:00:32;;;;;;;5.57;3.22;;;9.30;99.90;;;8.30;100.00;97539.22;5052677;28;20775;-71
2023/03/21 01:03:04;;;;;;;4.27;3.20;;;9.30;99.90;;;8.30;100.00;97540.03;5052507;28;20469;-71
2023/03/21 01:08:20;;;;;;;5.30;3.50;;;9.30;99.90;;;8.33;100.00;97536.97;5051467;28;20830;-71
2023/03/21 01:10:49;;;;;;;5.13;3.60;;;9.40;99.90;;;8.33;100.00;97533.53;5052358;28;20408;-71
2023/03/21 01:13:20;;;;;;;3.60;3.20;;;9.30;99.90;;;8.33;100.00;97541.44;5050881;28;20409;-71
2023/03/21 01:15:49;;;;;;;4.57;3.20;;;9.30;99.90;;;8.32;100.00;97535.38;5052314;28;20402;-72
2023/03/21 01:18:17;;;;;;;6.82;3.47;;;9.30;99.90;;;8.33;100.00;97538.81;5051707;28;20401;-71
2023/03/21 01:20:44;;;;;;;6.07;3.97;;;9.30;99.90;;;8.27;100.00;97529.16;5051383;28;20425;-71
2023/03/21 01:23:12;;;;;;;9.55;3.42;;;9.30;99.90;;;8.19;100.00;97530.31;5051818;28;20433;-71
2023/03/21 01:25:40;;;;;;;4.93;3.45;;;9.20;99.90;;;8.16;100.00;97534.22;5052150;28;20824;-71
2023/03/21 01:28:06;;;;;;;5.97;3.30;;;9.20;99.90;;;8.15;100.00;97527.34;5052208;28;20401;-71
2023/03/21 01:30:32;;;;;;;11.10;4.40;;;9.20;99.90;;;8.12;100.00;97534.88;5050788;28;20938;-71
2023/03/21 01:32:58;;;;;;;4.90;3.47;;;9.10;99.90;;;8.09;100.00;97532.72;5050848;28;20409;-70
2023/03/21 01:35:25;;;;;;;5.38;3.33;;;9.10;99.90;;;8.06;100.00;97526.06;5051717;28;20409;-71
2023/03/21 01:37:50;;;;;;;6.80;3.55;;;9.10;99.90;;;8.09;100.00;97527.47;5051923;28;20415;-71
2023/03/21 01:40:21;;;;;;;7.17;3.40;;;9.10;99.90;;;8.11;100.00;97528.03;5051913;28;20425;-71
2023/03/21 01:42:48;;;;;;;7.35;3.58;;;9.10;99.90;;;8.09;100.00;97530.91;5051760;28;20385;-71
2023/03/21 01:46:20;;;;;;;7.38;3.83;;;9.10;99.90;;;8.09;100.00;97519.56;5051637;28;20413;-71
2023/03/21 01:48:49;;;;;;;8.90;3.70;;;9.10;99.90;;;8.09;100.00;97519.56;5049783;28;20402;-71
2023/03/21 01:51:15;;;;;;;8.38;3.78;;;9.10;99.90;;;8.08;100.00;97524.03;5051535;28;20405;-71
2023/03/21 01:53:41;;;;;;;7.60;3.92;;;9.10;99.90;;;8.07;100.00;97521.59;5051529;28;20451;-71
2023/03/21 01:56:15;;;;;;;7.47;3.87;;;9.10;99.90;;;8.05;100.00;97518.41;5051616;28;20906;-71
2023/03/21 01:58:44;;;;;;;6.97;3.70;;;9.10;99.90;;;8.03;100.00;97513.38;5051502;28;21154;-71
2023/03/21 02:01:10;;;;;;;5.25;3.80;;;9.00;99.90;;;8.05;100.00;97513.13;5050404;28;20471;-71
2023/03/21 02:03:48;;;;;;;4.45;3.63;;;9.10;99.90;;;8.04;100.00;97511.53;5051115;28;20512;-71
2023/03/21 02:06:24;;;;;;;8.43;4.10;;;9.10;99.90;;;8.01;100.00;97512.00;5051138;28;20401;-71
2023/03/21 02:08:52;;;;;;;6.50;3.78;;;9.00;99.90;;;8.01;100.00;97506.72;5051407;28;20414;-71
2023/03/21 02:11:18;;;;;;;6.50;3.88;;;9.00;99.90;;;8.00;100.00;97508.56;5051237;28;20401;-71
2023/03/21 02:13:45;;;;;;;10.23;4.40;;;9.00;99.90;;;7.97;100.00;97503.72;5050206;28;20505;-71
2023/03/21 02:16:20;;;;;;;6.73;4.00;;;9.00;99.90;;;7.94;100.00;97500.78;5050889;28;20397;-71
2023/03/21 02:18:55;;;;;;;5.73;4.23;;;8.90;99.90;;;7.95;100.00;97500.56;5051116;28;20913;-71
2023/03/21 02:22:09;;;;;;;7.07;4.50;;;8.90;99.90;;;7.94;100.00;97501.56;5051022;28;20393;-71
2023/03/21 02:25:16;;;;;;;7.75;4.90;;;8.90;99.90;;;7.94;100.00;97506.03;5050357;28;20646;-71
2023/03/21 02:27:49;;;;;;;9.48;4.90;;;9.00;99.90;;;7.89;100.00;97498.03;5050148;28;20405;-71
2023/03/21 02:30:47;;;;;;;10.20;4.93;;;8.90;99.90;;;7.86;100.00;97498.50;5050738;28;20916;-71
2023/03/21 02:34:17;;;;;;;8.75;5.22;;;8.90;99.90;;;7.86;100.00;97490.59;5050572;28;20397;-71
2023/03/21 02:37:01;;;;;;;8.13;5.25;;;8.90;99.90;;;7.88;100.00;97488.53;5003284;28;20512;-71
2023/03/21 02:39:39;;;;;;;8.30;5.00;;;8.90;99.90;;;7.92;100.00;97490.47;5050075;28;22324;-71
2023/03/21 02:42:12;;;;;;;11.30;5.90;;;8.90;99.90;;;7.92;100.00;97485.19;5049540;28;20410;-71
2023/03/21 02:44:44;;;;;;;8.57;5.72;;;9.00;99.90;;;7.92;100.00;97489.66;5050637;28;20393;-72
2023/03/21 02:47:17;;;;;;;7.53;5.32;;;8.90;99.90;;;7.92;100.00;97490.47;5050763;28;20747;-71
2023/03/21 02:49:49;;;;;;;10.63;5.22;;;8.90;99.90;;;7.86;100.00;97480.84;5050738;28;20429;-71
2023/03/21 02:52:21;;;;;;;7.25;5.05;;;8.90;99.90;;;7.82;100.00;97482.31;5050396;28;20459;-71
2023/03/21 02:54:48;;;;;;;12.63;5.22;;;8.80;99.90;;;7.77;100.00;97476.94;5049615;28;20890;-71
2023/03/21 02:57:18;;;;;;;9.50;5.07;;;8.80;99.90;;;7.74;100.00;97482.69;5050096;28;20508;-71
2023/03/21 02:59:47;;;;;;;7.22;5.00;;;8.80;99.90;;;7.73;100.00;97481.91;5050395;28;20540;-71
2023/03/21 03:02:15;;;;;;;12.90;5.68;;;8.80;99.90;;;7.72;100.00;97477.66;5050331;28;20405;-71
2023/03/21 03:04:41;;;;;;;9.85;5.30;;;8.70;99.90;;;7.74;100.00;97482.69;5050569;28;20480;-71
2023/03/21 03:07:39;;;;;;;8.73;5.63;;;8.70;99.90;;;7.76;100.00;97476.16;5049610;28;20402;-71
2023/03/21 03:10:35;;;;;;;7.60;5.10;;;8.80;99.90;;;7.79;100.00;97472.25;5031637;28;20455;-71
2023/03/21 03:13:18;;;;;;;8.98;4.95;;;8.80;99.90;;;7.79;100.00;97477.53;5050017;28;20433;-71
2023/03/21 03:15:56;;;;;;;8.57;5.45;;;8.80;99.90;;;7.77;100.00;97482.22;5050329;28;20874;-71
2023/03/21 03:18:36;;;;;;;7.20;4.75;;;8.80;99.90;;;7.75;100.00;97471.91;5050398;28;20893;-71
2023/03/21 03:21:09;;;;;;;9.15;5.13;;;8.80;99.90;;;7.76;100.00;97477.97;5049284;28;20402;-71
2023/03/21 03:23:45;;;;;;;7.78;5.18;;;8.80;99.90;;;7.77;100.00;97474.31;5049890;28;20751;-71
2023/03/21 03:26:16;;;;;;;7.05;5.40;;;8.80;99.90;;;7.77;100.00;97475.13;5050166;28;20397;-71
2023/03/21 03:28:47;;;;;;;8.80;5.28;;;8.80;99.90;;;7.75;100.00;97477.19;5050290;28;20398;-71
2023/03/21 03:31:20;;;;;;;9.15;5.82;;;8.80;99.90;;;7.75;100.00;97464.00;5050190;28;20893;-71
2023/03/21 03:33:50;;;;;;;8.15;5.40;;;8.80;99.90;;;7.78;100.00;97474.09;5049264;28;20542;-71
2023/03/21 03:36:20;;;;;;;11.65;5.90;;;8.80;99.90;;;7.81;100.00;97469.41;5049796;28;20463;-71
2023/03/21 03:38:49;;;;;;;7.95;5.85;;;8.80;99.90;;;7.85;100.00;97470.53;5049832;28;20397;-71
2023/03/21 03:41:22;;;;;;;10.02;7.40;;;8.90;99.90;;;7.84;100.00;97464.44;5049987;28;20456;-71
2023/03/21 03:43:53;;;;;;;9.50;6.55;;;8.80;99.90;;;7.85;100.00;97470.53;5050152;28;20394;-71
2023/03/21 03:46:27;;;;;;;8.15;5.88;;;8.90;99.90;;;7.86;100.00;97467.66;5050027;28;20398;-71
2023/03/21 03:48:57;;;;;;;8.63;6.15;;;8.90;99.90;;;7.90;100.00;97465.34;5049030;28;20424;-71
2023/03/21 03:51:28;;;;;;;7.97;5.65;;;8.90;99.90;;;7.90;100.00;97462.72;5049612;28;20411;-71
2023/03/21 03:54:00;;;;;;;11.55;6.10;;;8.90;99.90;;;7.89;100.00;97455.88;5049912;28;20425;-71
2023/03/21 03:56:27;;;;;;;6.85;5.18;;;8.90;99.90;;;7.87;100.00;97453.47;5049871;28;20404;-71
2023/03/21 03:58:54;;;;;;;7.05;4.90;;;8.90;99.90;;;7.86;100.00;97451.84;5049844;28;20405;-71
2023/03/21 04:01:20;;;;;;;8.07;5.13;;;8.90;99.90;;;7.82;100.00;97455.19;5048936;28;21041;-71
2023/03/21 04:03:48;;;;;;;10.80;5.30;;;8.80;99.90;;;7.80;100.00;97458.06;5049583;28;20503;-71
2023/03/21 04:06:15;;;;;;;8.63;4.80;;;8.80;99.90;;;7.74;100.00;97453.72;5063070;22;20429;-70
2023/03/21 04:08:41;;;;;;;7.72;4.90;;;8.80;99.90;;;7.71;100.00;97454.97;5037969;28;20401;-71
2023/03/21 04:11:10;;;;;;;9.35;5.55;;;8.70;99.90;;;7.67;100.00;97456.44;5053013;28;20404;-71
2023/03/21 04:13:35;;;;;;;7.20;5.22;;;8.70;99.90;;;7.64;100.00;97451.66;5053286;28;20882;-71
2023/03/21 04:16:02;;;;;;;6.15;4.95;;;8.70;99.90;;;7.61;100.00;97454.75;5036353;28;20422;-70
2023/03/21 04:18:28;;;;;;;6.80;5.60;;;8.60;99.90;;;7.58;100.00;97457.03;5045884;28;20448;-70
2023/03/21 04:20:54;;;;;;;7.15;5.20;;;8.60;99.90;;;7.56;100.00;97454.63;5053315;28;20945;-70
2023/03/21 04:23:20;;;;;;;8.80;5.20;;;8.60;99.90;;;7.51;100.00;97448.47;5053224;28;20496;-71
2023/03/21 04:25:46;;;;;;;8.10;5.35;;;8.60;99.90;;;7.47;100.00;97449.94;5053305;28;20431;-71
2023/03/21 04:28:13;;;;;;;8.90;5.55;;;8.50;99.90;;;7.42;100.00;97448.00;5052776;28;20410;-71
2023/03/21 04:30:40;;;;;;;9.23;6.00;;;8.50;99.90;;;7.38;100.00;97449.47;5036914;28;20892;-71
2023/03/21 04:33:06;;;;;;;9.80;5.72;;;8.40;99.90;;;7.28;100.00;97450.06;5050269;28;20401;-71
2023/03/21 04:35:33;;;;;;;9.63;5.30;;;8.40;99.90;;;7.17;100.00;97447.41;5053121;28;20955;-71
2023/03/21 04:37:59;;;;;;;9.18;5.43;;;8.30;99.90;;;7.07;100.00;97442.69;5053216;28;20397;-70
2023/03/21 04:40:25;;;;;;;9.27;5.28;;;8.20;99.90;;;6.98;100.00;97450.13;5053000;28;20424;-70
2023/03/21 04:42:51;;;;;;;9.05;5.78;;;8.10;99.90;;;6.91;100.00;97448.63;5044980;28;20413;-71
2023/03/21 04:45:18;;;;;;;9.23;5.68;;;8.00;99.90;;;6.82;100.00;97442.91;5050789;28;20488;-71
2023/03/21 04:47:44;;;;;;;12.02;6.45;;;7.90;99.90;;;6.74;100.00;97445.03;5052031;28;20803;-70
2023/03/21 04:50:12;;;;;;;9.23;5.80;;;7.80;99.90;;;6.69;100.00;97444.94;5051727;28;20429;-70
2023/03/21 04:52:38;;;;;;;9.40;5.87;;;7.80;99.90;;;6.66;100.00;97445.34;5050376;28;20528;-70
2023/03/21 04:55:08;;;;;;;12.43;6.75;;;7.70;99.90;;;6.60;100.00;97439.97;5051121;28;20785;-70
2023/03/21 04:57:35;;;;;;;11.10;6.63;;;7.70;99.90;;;6.59;100.00;97442.81;5044583;28;20488;-71
2023/03/21 05:00:04;;;;;;;8.80;6.68;;;7.70;99.90;;;6.53;100.00;97436.66;5052208;28;20420;-71
2023/03/21 05:02:31;;;;;;;8.57;5.90;;;7.60;99.90;;;6.48;100.00;97441.75;5052646;28;20805;-71
2023/03/21 05:04:57;;;;;;;11.57;7.05;;;7.60;99.90;;;6.43;100.00;97436.38;5052021;28;20405;-72
2023/03/21 05:07:25;;;;;;;8.60;6.10;;;7.60;99.90;;;6.41;100.00;97442.88;5047081;28;20426;-72
2023/03/21 05:09:51;;;;;;;10.52;6.63;;;7.50;99.90;;;6.37;100.00;97437.25;5049311;28;20763;-72
2023/03/21 05:12:18;;;;;;;8.73;6.22;;;7.50;99.90;;;6.32;100.00;97438.94;5051686;28;20405;-72
2023/03/21 05:14:44;;;;;;;13.60;7.55;;;7.50;99.90;;;6.29;100.00;97442.81;5051958;28;20420;-72
2023/03/21 05:17:14;;;;;;;11.48;6.95;;;7.40;99.90;;;6.23;100.00;97443.72;5050886;28;20401;-72
2023/03/21 05:19:41;;;;;;;10.18;6.95;;;7.30;99.90;;;6.19;100.00;97440.72;5033900;28;20409;-72
2023/03/21 05:22:10;;;;;;;10.27;6.78;;;7.30;99.90;;;6.19;100.00;97443.34;5046665;28;20412;-72
2023/03/21 05:24:40;;;;;;;11.88;7.20;;;7.30;99.90;;;6.19;100.00;97450.44;5051166;28;20496;-73
2023/03/21 05:27:07;;;;;;;13.10;7.63;;;7.30;99.90;;;6.16;100.00;97443.78;5039142;28;20465;-71
2023/03/21 05:29:33;;;;;;;12.63;7.32;;;7.30;99.90;;;6.15;100.00;97446.66;5050925;28;20934;-71
2023/03/21 05:32:00;;;;;;;10.00;7.00;;;7.30;99.90;;;6.14;100.00;97439.78;5051050;28;20405;-71
2023/03/21 05:34:27;;;;;;;11.43;7.53;;;7.30;99.90;;;6.13;100.00;97448.69;5054803;28;20401;-71
2023/03/21 05:36:54;;;;;;;15.15;7.82;;;7.30;99.90;;;6.16;100.00;97446.41;5051848;28;20401;-71
2023/03/21 05:39:21;;;;;;;10.48;6.88;;;7.30;99.90;;;6.21;100.00;97451.00;5043235;28;20425;-71
2023/03/21 05:41:46;;;;;;;17.55;8.68;;;7.30;99.90;;;6.26;100.00;97445.09;5043384;28;20397;-71
2023/03/21 05:44:12;;;;;;;12.20;7.38;;;7.40;99.90;;;6.28;100.00;97448.31;5051644;28;20910;-71
2023/03/21 05:46:39;;;;;;;12.67;8.03;;;7.40;99.90;;;6.33;100.00;97443.16;5051852;28;20548;-71
2023/03/21 05:49:05;;;;;;;10.53;7.60;;;7.40;99.90;;;6.37;100.00;97441.72;5051870;28;20422;-72
2023/03/21 05:51:31;;;;;;;12.27;7.07;;;7.50;99.90;;;6.43;100.00;97453.97;5045451;28;20501;-71
2023/03/21 05:53:58;;;;;;;12.57;8.43;;;7.50;99.90;;;6.49;100.00;97455.69;5045186;28;20444;-72
2023/03/21 05:56:24;;;;;;;13.10;8.50;;;7.60;99.90;;;6.55;100.00;97452.97;5051491;28;20409;-71
2023/03/21 05:58:50;;;;;;;13.27;8.32;;;7.60;99.90;;;6.61;100.00;97453.94;5051589;28;20398;-71
2023/03/21 06:01:16;;;;;;;9.32;6.97;;;7.60;99.90;;;6.63;100.00;97459.75;5051325;28;20909;-70
2023/03/21 06:03:42;;;;;;;12.18;7.10;;;7.70;99.90;;;6.70;100.00;97459.66;5051008;28;20436;-70
2023/03/21 06:06:09;;;;;;;12.93;7.50;;;7.80;99.90;;;6.87;100.00;97455.38;5038202;28;20888;-70
2023/03/21 06:08:35;;;;;;;10.05;6.63;;;7.90;99.90;;;6.83;100.00;97457.66;5050986;28;20407;-71
2023/03/21 06:11:02;;;;;;;11.23;6.20;;;7.90;99.90;;;6.84;100.00;97453.19;5033454;28;20406;-69
2023/03/21 06:13:30;;;;;;;12.65;6.13;;;7.90;99.90;;;6.88;100.00;97454.34;5049409;28;20492;-69
2023/03/21 06:15:56;;;;;;;9.68;5.72;;;7.90;99.90;;;6.89;100.00;97462.00;5049445;28;20405;-69
2023/03/21 06:18:21;;;;;;;8.73;5.47;;;7.90;99.90;;;6.92;100.00;97453.66;5037296;28;20412;-70
2023/03/21 06:20:47;;;;;;;9.07;5.60;;;7.90;99.90;;;7.02;100.00;97458.38;5043997;28;20791;-71
2023/03/21 06:23:14;;;;;;;8.13;5.70;;;8.00;99.90;;;7.01;100.00;97459.41;5048794;28;20425;-72
2023/03/21 06:25:40;;;;;;;8.43;5.68;;;8.00;99.90;;;6.97;100.00;97459.06;5049134;28;20872;-72
2023/03/21 06:28:07;;;;;;;7.82;5.15;;;8.00;99.90;;;7.00;100.00;97463.84;5050384;28;20459;-70
2023/03/21 06:30:33;;;;;;;6.90;5.45;;;8.00;99.90;;;7.01;100.00;97456.75;5046941;28;20414;-70
2023/03/21 06:32:59;;;;;;;7.07;5.45;;;8.10;99.90;;;6.98;100.00;97458.03;5042293;28;20417;-70
2023/03/21 06:35:25;;;;;;;7.97;5.47;;;8.00;99.90;;;6.97;100.00;97453.00;5042452;28;20420;-70
2023/03/21 06:37:51;;;;;;;8.77;5.55;;;8.00;99.90;;;6.97;100.00;97455.63;5050924;28;20908;-70
2023/03/21 06:40:17;;;;;;;8.50;5.60;;;8.00;99.90;;;6.90;100.00;97450.47;5050705;28;20417;-70
2023/03/21 06:42:43;;;;;;;6.63;4.95;;;8.00;99.90;;;6.91;100.00;97448.63;5050533;28;20972;-70
2023/03/21 06:45:11;;;;;;;9.03;5.67;;;8.00;99.90;;;6.98;100.00;97444.06;5050621;28;20441;-70
2023/03/21 06:47:37;;;;;;;8.38;5.30;;;8.00;99.90;;;6.98;100.00;97449.34;5036902;28;20471;-70
2023/03/21 06:50:05;;;;;;;10.45;6.30;;;8.00;99.90;;;7.03;100.00;97453.91;5047520;28;20397;-70
2023/03/21 06:52:31;;;;;;;10.38;5.32;;;8.00;99.90;;;7.09;100.00;97447.72;5048662;28;20423;-70
2023/03/21 06:54:57;;;;;;;7.97;5.30;;;8.10;99.90;;;7.19;100.00;97446.16;5049342;28;20402;-70
2023/03/21 06:57:23;;;;;;;8.10;5.55;;;8.20;99.90;;;7.31;100.00;97446.16;5054181;28;20901;-70
2023/03/21 06:59:49;;;;;;;9.50;5.50;;;8.30;99.90;;;7.42;100.00;97444.56;5044099;28;20577;-70
2023/03/21 07:02:16;;;;;;;8.40;5.05;;;8.40;99.90;;;7.60;100.00;97447.88;5052367;28;20431;-70
2023/03/21 07:04:42;;;;;;;7.10;4.68;;;8.60;99.90;;;7.63;100.00;97446.59;5050228;28;20899;-70
2023/03/21 07:07:08;;;;;;;10.73;4.97;;;8.60;99.90;;;7.73;100.00;97446.84;5062551;28;20482;-70
2023/03/21 07:09:34;;;;;;;6.78;5.18;;;8.70;99.90;;;7.92;100.00;97439.56;5053518;28;20398;-71
2023/03/21 07:12:00;;;;;;;6.30;4.45;;;8.80;99.90;;;7.88;100.00;97441.91;5061186;28;20486;-70
2023/03/21 07:14:26;;;;;;;7.93;4.23;;;8.90;99.90;;;7.89;100.00;97440.06;5046465;28;20433;-70
2023/03/21 07:16:52;;;;;;;7.60;4.38;;;8.90;99.90;;;7.94;100.00;97437.53;5049954;28;20414;-71
2023/03/21 07:19:19;;;;;;;5.13;4.10;;;8.90;99.90;;;8.00;100.00;97429.47;5050029;28;20409;-71
2023/03/21 07:21:45;;;;;;;5.67;3.90;;;9.00;99.90;;;8.12;100.00;97439.97;5066247;28;20422;-71
2023/03/21 07:24:11;;;;;;;7.47;3.85;;;9.10;99.90;;;8.20;100.00;97439.59;5052387;28;20407;-70
2023/03/21 07:26:37;;;;;;;5.70;3.92;;;9.10;99.90;;;8.33;100.00;97433.31;5039692;28;20403;-70
2023/03/21 07:29:03;;;;;;;7.13;4.03;;;9.20;99.90;;;8.31;100.00;97433.53;5046836;28;20412;-71
2023/03/21 07:31:29;;;;;;;5.65;3.95;;;9.30;99.90;;;8.58;100.00;97439.03;5048780;28;20441;-72
2023/03/21 07:33:55;;;;;;;7.22;4.05;;;9.50;99.90;;;8.61;100.00;97438.56;5052013;28;20487;-70
2023/03/21 07:36:22;;;;;;;7.28;3.85;;;9.50;99.90;;;8.64;100.00;97440.75;5052896;28;20821;-72
2023/03/21 07:38:48;;;;;;;6.18;3.90;;;9.60;99.90;;;8.73;100.00;97435.88;5042448;28;20410;-70
2023/03/21 07:41:14;;;;;;;5.68;4.07;;;9.70;99.90;;;8.97;100.00;97442.63;5049514;28;20895;-70
2023/03/21 07:43:40;;;;;;;5.10;3.50;;;9.80;99.90;;;8.95;100.00;97443.91;5050518;28;20404;-70
2023/03/21 07:46:06;;;;;;;5.60;3.47;;;9.90;99.90;;;8.99;100.00;97447.66;5048991;28;20446;-69
2023/03/21 07:48:32;;;;;;;5.85;3.38;;;9.80;99.90;;;9.05;100.00;97444.88;5054006;28;20419;-68
2023/03/21 07:50:58;;;;;;;5.57;3.95;;;9.90;99.90;;;9.19;100.00;97434.78;5047842;28;20550;-70
2023/03/21 07:53:26;;;;;;;5.90;3.53;;;10.10;99.90;;;9.21;100.00;97438.78;5049294;28;20540;-70
2023/03/21 07:55:55;;;;;;;5.30;3.47;;;10.10;99.90;;;9.18;100.00;97433.19;5043579;28;20401;-70
2023/03/21 07:58:21;;;;;;;5.03;3.25;;;10.10;99.90;;;9.16;100.00;97441.38;5047038;28;20736;-70
2023/03/21 08:00:47;;;;;;;5.82;4.10;;;10.10;99.90;;;9.15;100.00;97438.97;5044837;28;20418;-70
2023/03/21 08:03:13;;;;;;;6.05;3.55;;;10.10;99.90;;;9.29;100.00;97437.59;5041627;28;20413;-70
2023/03/21 08:05:40;;;;;;;4.28;3.17;;;10.20;99.90;;;9.40;100.00;97431.41;5051468;28;20492;-70
2023/03/21 08:08:06;;;;;;;6.10;3.45;;;10.30;99.90;;;9.50;100.00;97442.13;5026089;28;20406;-70
2023/03/21 08:10:34;;;;;;;5.35;3.28;;;10.40;99.90;;;9.49;100.00;97427.31;5043975;28;20395;-70
2023/03/21 08:13:00;;;;;;;4.35;3.13;;;10.40;99.90;;;9.55;100.00;97430.81;5044833;28;20437;-71
2023/03/21 08:15:26;;;;;;;4.28;3.25;;;10.40;99.90;;;9.68;100.00;97433.94;5052348;28;20421;-71
2023/03/21 08:17:52;;;;;;;6.20;3.13;;;10.60;99.90;;;9.69;100.00;97424.97;5043581;28;20496;-69
2023/03/21 08:20:22;;;;;;;5.43;3.35;;;10.60;99.90;;;9.95;100.00;97425.28;5048161;28;20409;-69
2023/03/21 08:22:48;;;;;;;5.77;3.53;;;10.80;99.90;;;10.02;100.00;97425.91;5054700;28;20466;-70
2023/03/21 08:25:16;;;;;;;5.18;3.40;;;11.00;99.90;;;10.10;100.00;97425.47;5053188;28;20480;-71
2023/03/21 08:27:45;;;;;;;4.75;3.03;;;11.00;99.90;;;10.10;100.00;97420.19;5054851;28;20529;-71
2023/03/21 08:30:15;;;;;;;5.88;3.28;;;11.00;99.90;;;10.07;100.00;97421.47;5050711;28;20399;-71
2023/03/21 08:32:41;;;;;;;4.80;3.10;;;10.90;99.90;;;10.14;100.00;97420.50;5055186;28;20397;-72
2023/03/21 08:35:11;;;;;;;3.85;2.90;;;11.00;99.90;;;10.20;100.00;97420.34;5044575;28;20416;-73
2023/03/21 08:37:37;;;;;;;5.40;3.07;;;11.00;99.90;;;10.40;100.00;97417.91;5026243;28;20413;-72
2023/03/21 08:40:07;;;;;;;4.68;3.42;;;11.20;99.90;;;10.51;100.00;97415.38;5047754;28;20417;-73
2023/03/21 08:42:34;;;;;;;5.90;3.22;;;11.40;99.90;;;10.60;100.00;97412.00;5048984;28;20401;-72
2023/03/21 08:45:02;;;;;;;4.78;3.03;;;11.40;99.90;;;10.63;100.00;97410.72;5049627;28;20410;-72
2023/03/21 08:47:28;;;;;;;4.45;2.60;;;11.50;99.90;;;10.56;100.00;97407.47;5053716;28;20491;-72
2023/03/21 08:49:54;;;;;;;4.80;2.28;;;11.40;99.90;;;10.52;100.00;97407.19;5049683;28;20740;-72
2023/03/21 08:52:20;;;;;;;6.80;2.92;;;11.40;99.90;;;10.83;100.00;97403.75;5049968;28;20428;-72
2023/03/21 08:54:47;;;;;;;5.95;2.65;;;11.60;99.90;;;10.86;100.00;97411.19;5052702;28;20926;-72
2023/03/21 08:57:13;;;;;;;5.78;2.22;;;11.70;99.90;;;10.91;100.00;97410.44;5029670;28;20821;-73
2023/03/21 08:59:39;;;;;;;3.88;2.25;;;11.80;99.90;;;10.98;100.00;97403.06;5046580;28;20418;-72
2023/03/21 09:02:07;;;;;;;4.95;2.28;;;11.80;99.90;;;11.05;100.00;97397.59;5045190;28;20411;-71
2023/03/21 09:04:33;;;;;;;2.85;2.35;;;11.80;99.90;;;11.27;100.00;97394.84;5050946;28;20958;-70
2023/03/21 09:07:02;;;;;;;4.65;2.72;;;12.00;99.90;;;11.30;100.00;97383.72;5049049;28;20445;-69
2023/03/21 09:09:28;;;;;;;4.32;2.47;;;12.10;99.90;;;11.28;100.00;97394.56;5054457;28;20389;-71
2023/03/21 09:11:54;;;;;;;5.50;2.30;;;12.10;99.90;;;11.34;100.00;97401.50;5051734;28;20483;-71
2023/03/21 09:14:20;;;;;;;2.83;2.10;;;12.20;99.90;;;11.50;100.00;97397.88;5048916;28;20563;-71
2023/03/21 09:16:46;;;;;;;2.33;1.95;;;12.30;99.90;;;11.61;100.00;97402.19;5051548;28;20427;-72
2023/03/21 09:19:13;;;;;;;3.43;2.07;;;12.40;99.90;;;11.71;100.00;97405.97;5050357;28;20490;-71
2023/03/21 09:21:39;;;;;;;3.83;2.15;;;12.50;99.90;;;11.94;100.00;97401.06;5054244;28;20402;-72
2023/03/21 09:24:06;;;;;;;3.67;1.73;;;12.70;99.90;;;12.00;100.00;97408.00;5051707;28;20493;-71
2023/03/21 09:26:33;;;;;;;4.32;1.83;;;12.80;99.90;;;11.85;100.00;97410.56;5051258;28;20412;-71
2023/03/21 09:28:59;;;;;;;3.05;1.90;;;12.70;99.90;;;12.07;100.00;97404.28;5049194;28;20443;-71
2023/03/21 09:31:27;;;;;;;5.43;2.10;;;12.70;99.90;;;12.29;100.00;97403.03;5050727;28;20410;-73
2023/03/21 09:33:54;;;;;;;2.70;1.90;;;13.00;99.90;;;12.22;100.00;97396.38;5048960;28;20428;-73
2023/03/21 09:36:25;;;;;;;3.13;1.87;;;13.00;99.90;;;12.24;100.00;97396.94;5034113;28;21022;-70
2023/03/21 09:38:51;;;;;;;3.13;1.80;;;13.00;99.90;;;12.36;100.00;97402.78;5050638;28;20892;-70
2023/03/21 09:41:38;;;;;;;3.33;2.13;;;13.10;99.90;;;12.63;100.00;97390.09;5051964;28;20498;-70
2023/03/21 09:44:23;;;;;;;3.05;1.90;;;13.30;99.90;;;12.89;100.00;97392.78;5053378;28;20439;-71
2023/03/21 09:46:54;;;;;;;2.58;2.10;;;13.50;99.90;;;13.01;100.00;97390.66;5050086;28;20883;-71
2023/03/21 09:49:29;;;;;;;3.13;2.17;;;13.70;99.90;;;12.86;96.89;97398.63;5054037;28;20941;-71
2023/03/21 09:52:02;;;;;;;3.15;1.98;;;13.70;91.00;;;13.12;100.00;97381.63;5032842;28;20736;-71
2023/03/21 09:54:34;;;;;;;3.50;1.90;;;13.80;99.90;;;13.38;100.00;97385.09;5052060;28;20401;-71
2023/03/21 09:57:06;;;;;;;1.70;1.50;;;14.10;99.90;;;13.64;100.00;97378.63;5058134;28;20397;-71
2023/03/21 09:59:38;;;;;;;3.05;1.50;;;14.30;99.90;;;13.90;100.00;97376.69;5051910;28;20402;-71
2023/03/21 10:02:32;;;;;;;1.53;1.30;;;14.50;99.90;;;14.26;100.00;97374.66;5051886;28;20463;-73
2023/03/21 10:04:59;;;;;;;2.03;1.40;;;14.90;99.90;;;14.63;100.00;97364.34;5050126;28;20412;-72
2023/03/21 10:07:29;;;;;;;2.72;1.90;;;15.20;99.90;;;14.80;100.00;97363.97;5062732;22;20440;-73
2023/03/21 10:09:57;;;;;;;2.83;1.63;;;15.50;99.90;;;15.05;100.00;97357.63;5047730;28;20397;-74
2023/03/21 10:12:24;;;;;;;7.18;1.90;;;15.70;99.90;;;15.30;100.00;97356.59;5050562;28;20405;-75
2023/03/21 10:14:56;;;;;;;2.90;1.30;;;16.00;99.90;;;15.74;100.00;97359.88;5052313;28;20765;-74
2023/03/21 10:17:32;;;;;;;3.00;1.08;;;16.50;99.90;;;16.34;100.00;97354.06;5034703;28;20396;-74
2023/03/21 10:20:13;;;;;;;1.75;1.23;;;17.10;99.90;;;16.98;100.00;97351.50;5033497;28;20498;-74
2023/03/21 10:22:41;;;;;;;2.95;1.38;;;17.80;99.90;;;17.53;100.00;97354.28;5028003;28;20396;-74
2023/03/21 10:25:13;;;;;;;3.25;1.30;;;18.30;99.90;;;17.74;95.46;97354.75;5034352;28;20461;-73
2023/03/21 10:27:40;;;;;;;2.90;1.17;;;18.50;92.00;;;18.31;100.00;97349.81;5031079;28;20402;-74
2023/03/21 10:30:18;;;;;;;2.70;1.30;;;18.90;98.50;;;18.12;68.93;97339.19;5033779;28;20429;-74
2023/03/21 10:32:44;;;;;;;1.65;1.23;;;18.90;68.40;;;18.64;93.79;97345.88;5030822;28;20403;-74
2023/03/21 10:35:13;;;;;;;1.88;1.38;;;19.20;90.70;;;18.90;93.08;97346.84;5030214;28;21000;-73